sensor_id;sensor_type;location;lat;lon;timestamp;pressure;altitude;pressure_sealevel;temperature;humidity
72798;BME280;61084;55.816;37.036;2022-07-04T00:00:30;99426.56;;;18.91;50.03
72798;BME280;61084;55.816;37.036;2022-07-04T00:02:55;99425.84;;;18.89;49.80
72798;BME280;61084;55.816;37.036;2022-07-04T00:05:21;99430.63;;;18.85;50.09
72798;BME280;61084;55.816;37.036;2022-07-04T00:07:48;99425.41;;;18.83;50.38
72798;BME280;61084;55.816;37.036;2022-07-04T00:10:18;99421.47;;;18.78;50.59
72798;BME280;61084;55.816;37.036;2022-07-04T00:12:46;99413.88;;;18.73;50.88
72798;BME280;61084;55.816;37.036;2022-07-04T00:15:13;99408.72;;;18.72;51.16
72798;BME280;61084;55.816;37.036;2022-07-04T00:17:40;99416.78;;;18.70;50.89
72798;BME280;61084;55.816;37.036;2022-07-04T00:20:07;99412.72;;;18.66;51.09
72798;BME280;61084;55.816;37.036;2022-07-04T00:22:36;99418.19;;;18.65;51.06
72798;BME280;61084;55.816;37.036;2022-07-04T00:25:02;99417.22;;;18.66;50.92
72798;BME280;61084;55.816;37.036;2022-07-04T00:27:31;99417.78;;;18.69;51.13
72798;BME280;61084;55.816;37.036;2022-07-04T00:29:57;99420.91;;;18.74;50.64
72798;BME280;61084;55.816;37.036;2022-07-04T00:32:23;99427.03;;;18.75;50.84
72798;BME280;61084;55.816;37.036;2022-07-04T00:34:48;99422.00;;;18.72;50.98
72798;BME280;61084;55.816;37.036;2022-07-04T00:37:14;99428.41;;;18.69;51.29
72798;BME280;61084;55.816;37.036;2022-07-04T00:39:40;99424.59;;;18.62;51.48
72798;BME280;61084;55.816;37.036;2022-07-04T00:42:09;99428.50;;;18.58;51.68
72798;BME280;61084;55.816;37.036;2022-07-04T00:44:35;99425.38;;;18.53;51.36
72798;BME280;61084;55.816;37.036;2022-07-04T00:47:03;99427.47;;;18.50;51.74
72798;BME280;61084;55.816;37.036;2022-07-04T00:49:29;99432.31;;;18.45;51.78
72798;BME280;61084;55.816;37.036;2022-07-04T00:51:55;99432.31;;;18.45;51.80
72798;BME280;61084;55.816;37.036;2022-07-04T00:54:25;99436.03;;;18.42;51.99
72798;BME280;61084;55.816;37.036;2022-07-04T00:56:56;99434.38;;;18.41;51.84
72798;BME280;61084;55.816;37.036;2022-07-04T00:59:22;99440.63;;;18.40;51.86
72798;BME280;61084;55.816;37.036;2022-07-04T01:01:49;99438.13;;;18.39;52.00
72798;BME280;61084;55.816;37.036;2022-07-04T01:04:15;99436.69;;;18.35;52.27
72798;BME280;61084;55.816;37.036;2022-07-04T01:06:42;99434.28;;;18.32;52.22
72798;BME280;61084;55.816;37.036;2022-07-04T01:09:11;99439.88;;;18.29;52.46
72798;BME280;61084;55.816;37.036;2022-07-04T01:11:37;99438.47;;;18.25;53.10
72798;BME280;61084;55.816;37.036;2022-07-04T01:14:04;99434.34;;;18.21;52.84
72798;BME280;61084;55.816;37.036;2022-07-04T01:16:32;99444.97;;;18.21;53.27
72798;BME280;61084;55.816;37.036;2022-07-04T01:18:58;99430.97;;;18.19;53.19
72798;BME280;61084;55.816;37.036;2022-07-04T01:21:24;99438.84;;;18.20;53.12
72798;BME280;61084;55.816;37.036;2022-07-04T01:23:50;99439.66;;;18.21;53.36
72798;BME280;61084;55.816;37.036;2022-07-04T01:26:16;99439.41;;;18.24;53.33
72798;BME280;61084;55.816;37.036;2022-07-04T01:28:43;99432.16;;;18.26;53.37
72798;BME280;61084;55.816;37.036;2022-07-04T01:31:09;99440.13;;;18.26;53.37
72798;BME280;61084;55.816;37.036;2022-07-04T01:33:35;99439.16;;;18.27;53.45
72798;BME280;61084;55.816;37.036;2022-07-04T01:36:00;99441.81;;;18.27;53.42
72798;BME280;61084;55.816;37.036;2022-07-04T01:38:26;99440.84;;;18.28;53.33
72798;BME280;61084;55.816;37.036;2022-07-04T01:40:54;99440.25;;;18.24;53.63
72798;BME280;61084;55.816;37.036;2022-07-04T01:43:20;99430.72;;;18.22;53.79
72798;BME280;61084;55.816;37.036;2022-07-04T01:45:46;99435.66;;;18.26;53.65
72798;BME280;61084;55.816;37.036;2022-07-04T01:48:13;99431.75;;;18.30;53.68
72798;BME280;61084;55.816;37.036;2022-07-04T01:50:39;99428.72;;;18.35;53.64
72798;BME280;61084;55.816;37.036;2022-07-04T01:53:05;99434.50;;;18.40;53.68
72798;BME280;61084;55.816;37.036;2022-07-04T01:55:32;99438.59;;;18.44;53.86
72798;BME280;61084;55.816;37.036;2022-07-04T01:57:58;99436.41;;;18.49;53.56
72798;BME280;61084;55.816;37.036;2022-07-04T02:00:24;99442.75;;;18.57;53.45
72798;BME280;61084;55.816;37.036;2022-07-04T02:03:09;99438.59;;;18.64;53.29
72798;BME280;61084;55.816;37.036;2022-07-04T02:05:37;99436.41;;;18.69;53.52
72798;BME280;61084;55.816;37.036;2022-07-04T02:08:04;99448.22;;;18.76;53.54
72798;BME280;61084;55.816;37.036;2022-07-04T02:10:30;99443.44;;;18.80;53.69
72798;BME280;61084;55.816;37.036;2022-07-04T02:12:56;99438.97;;;18.80;53.68
72798;BME280;61084;55.816;37.036;2022-07-04T02:15:28;99442.22;;;18.84;53.97
72798;BME280;61084;55.816;37.036;2022-07-04T02:17:55;99451.75;;;18.87;54.37
72798;BME280;61084;55.816;37.036;2022-07-04T02:20:21;99448.69;;;18.91;54.17
72798;BME280;61084;55.816;37.036;2022-07-04T02:22:46;99449.16;;;18.96;54.23
72798;BME280;61084;55.816;37.036;2022-07-04T02:25:12;99443.28;;;19.02;54.11
72798;BME280;61084;55.816;37.036;2022-07-04T02:27:38;99445.41;;;19.08;54.04
72798;BME280;61084;55.816;37.036;2022-07-04T02:30:05;99451.91;;;19.15;54.20
72798;BME280;61084;55.816;37.036;2022-07-04T02:32:31;99447.03;;;19.20;54.06
72798;BME280;61084;55.816;37.036;2022-07-04T02:34:57;99450.69;;;19.29;54.16
72798;BME280;61084;55.816;37.036;2022-07-04T02:37:22;99454.41;;;19.37;54.20
72798;BME280;61084;55.816;37.036;2022-07-04T02:39:48;99450.09;;;19.46;54.36
72798;BME280;61084;55.816;37.036;2022-07-04T02:42:14;99452.03;;;19.53;54.59
72798;BME280;61084;55.816;37.036;2022-07-04T02:44:40;99452.94;;;19.64;53.82
72798;BME280;61084;55.816;37.036;2022-07-04T02:47:07;99457.31;;;19.74;54.10
72798;BME280;61084;55.816;37.036;2022-07-04T02:49:33;99461.09;;;19.81;53.94
72798;BME280;61084;55.816;37.036;2022-07-04T02:51:58;99461.78;;;19.93;53.55
72798;BME280;61084;55.816;37.036;2022-07-04T02:54:24;99456.63;;;20.01;52.90
72798;BME280;61084;55.816;37.036;2022-07-04T02:56:50;99458.19;;;20.13;52.62
72798;BME280;61084;55.816;37.036;2022-07-04T02:59:16;99457.50;;;20.20;52.78
72798;BME280;61084;55.816;37.036;2022-07-04T03:01:41;99460.44;;;20.27;53.08
72798;BME280;61084;55.816;37.036;2022-07-04T03:04:07;99468.59;;;20.35;53.23
72798;BME280;61084;55.816;37.036;2022-07-04T03:06:33;99467.88;;;20.43;52.84
72798;BME280;61084;55.816;37.036;2022-07-04T03:09:02;99476.84;;;20.51;52.64
72798;BME280;61084;55.816;37.036;2022-07-04T03:11:28;99470.56;;;20.62;52.49
72798;BME280;61084;55.816;37.036;2022-07-04T03:13:53;99483.69;;;20.73;52.75
72798;BME280;61084;55.816;37.036;2022-07-04T03:16:19;99472.16;;;20.82;52.59
72798;BME280;61084;55.816;37.036;2022-07-04T03:18:45;99465.97;;;20.91;52.79
72798;BME280;61084;55.816;37.036;2022-07-04T03:21:11;99471.31;;;21.00;52.65
72798;BME280;61084;55.816;37.036;2022-07-04T03:23:36;99474.09;;;21.09;52.65
72798;BME280;61084;55.816;37.036;2022-07-04T03:26:02;99473.78;;;21.21;52.12
72798;BME280;61084;55.816;37.036;2022-07-04T03:28:28;99463.91;;;21.31;51.85
72798;BME280;61084;55.816;37.036;2022-07-04T03:30:54;99471.72;;;21.42;52.07
72798;BME280;61084;55.816;37.036;2022-07-04T03:33:20;99469.84;;;21.52;52.47
72798;BME280;61084;55.816;37.036;2022-07-04T03:35:46;99466.41;;;21.60;52.04
72798;BME280;61084;55.816;37.036;2022-07-04T03:38:11;99476.38;;;21.67;52.05
72798;BME280;61084;55.816;37.036;2022-07-04T03:40:37;99479.81;;;21.77;51.77
72798;BME280;61084;55.816;37.036;2022-07-04T03:43:03;99470.78;;;21.88;51.97
72798;BME280;61084;55.816;37.036;2022-07-04T03:45:30;99479.03;;;21.95;50.41
72798;BME280;61084;55.816;37.036;2022-07-04T03:47:56;99473.25;;;21.99;49.92
72798;BME280;61084;55.816;37.036;2022-07-04T03:50:22;99482.34;;;22.06;50.81
72798;BME280;61084;55.816;37.036;2022-07-04T03:52:48;99478.94;;;22.14;50.73
72798;BME280;61084;55.816;37.036;2022-07-04T03:55:14;99480.13;;;22.19;50.62
72798;BME280;61084;55.816;37.036;2022-07-04T03:57:40;99482.50;;;22.22;51.02
72798;BME280;61084;55.816;37.036;2022-07-04T04:00:07;99483.56;;;22.29;50.47
72798;BME280;61084;55.816;37.036;2022-07-04T04:02:38;99487.31;;;22.36;50.69
72798;BME280;61084;55.816;37.036;2022-07-04T04:05:04;99488.38;;;22.43;50.64
72798;BME280;61084;55.816;37.036;2022-07-04T04:07:49;99484.09;;;22.50;50.72
72798;BME280;61084;55.816;37.036;2022-07-04T04:10:15;99483.31;;;22.58;50.79
72798;BME280;61084;55.816;37.036;2022-07-04T04:12:41;99480.91;;;22.65;50.54
72798;BME280;61084;55.816;37.036;2022-07-04T04:15:07;99477.59;;;22.71;50.64
72798;BME280;61084;55.816;37.036;2022-07-04T04:17:33;99478.13;;;22.74;50.69
72798;BME280;61084;55.816;37.036;2022-07-04T04:19:59;99478.66;;;22.78;50.85
72798;BME280;61084;55.816;37.036;2022-07-04T04:22:28;99486.91;;;22.84;51.09
72798;BME280;61084;55.816;37.036;2022-07-04T04:24:53;99478.56;;;22.87;51.15
72798;BME280;61084;55.816;37.036;2022-07-04T04:27:19;99480.13;;;22.98;50.89
72798;BME280;61084;55.816;37.036;2022-07-04T04:29:45;99478.81;;;23.02;51.13
72798;BME280;61084;55.816;37.036;2022-07-04T04:32:11;99476.88;;;23.12;50.83
72798;BME280;61084;55.816;37.036;2022-07-04T04:34:37;99483.28;;;23.19;50.94
72798;BME280;61084;55.816;37.036;2022-07-04T04:37:03;99482.31;;;23.28;50.77
72798;BME280;61084;55.816;37.036;2022-07-04T04:39:28;99477.88;;;23.37;50.58
72798;BME280;61084;55.816;37.036;2022-07-04T04:41:54;99475.75;;;23.48;50.53
72798;BME280;61084;55.816;37.036;2022-07-04T04:44:20;99477.69;;;23.64;50.26
72798;BME280;61084;55.816;37.036;2022-07-04T04:46:46;99481.72;;;23.76;50.48
72798;BME280;61084;55.816;37.036;2022-07-04T04:49:12;99477.75;;;23.88;50.52
72798;BME280;61084;55.816;37.036;2022-07-04T04:51:38;99487.56;;;24.05;50.08
72798;BME280;61084;55.816;37.036;2022-07-04T04:54:07;99485.06;;;24.20;50.18
72798;BME280;61084;55.816;37.036;2022-07-04T04:56:33;99490.47;;;24.36;49.64
72798;BME280;61084;55.816;37.036;2022-07-04T04:58:58;99487.94;;;24.50;49.57
72798;BME280;61084;55.816;37.036;2022-07-04T05:01:24;99492.81;;;24.63;49.44
72798;BME280;61084;55.816;37.036;2022-07-04T05:03:50;99494.16;;;24.75;49.11
72798;BME280;61084;55.816;37.036;2022-07-04T05:06:15;99493.16;;;24.92;49.06
72798;BME280;61084;55.816;37.036;2022-07-04T05:08:41;99491.09;;;25.10;49.47
72798;BME280;61084;55.816;37.036;2022-07-04T05:11:07;99493.41;;;25.29;48.27
72798;BME280;61084;55.816;37.036;2022-07-04T05:13:33;99496.94;;;25.46;47.95
72798;BME280;61084;55.816;37.036;2022-07-04T05:15:58;99494.53;;;25.59;48.11
72798;BME280;61084;55.816;37.036;2022-07-04T05:18:24;99492.47;;;25.69;47.23
72798;BME280;61084;55.816;37.036;2022-07-04T05:20:50;99493.44;;;25.76;47.34
72798;BME280;61084;55.816;37.036;2022-07-04T05:23:16;99495.09;;;25.85;46.78
72798;BME280;61084;55.816;37.036;2022-07-04T05:25:42;99497.38;;;25.96;47.35
72798;BME280;61084;55.816;37.036;2022-07-04T05:28:08;99495.81;;;26.10;47.88
72798;BME280;61084;55.816;37.036;2022-07-04T05:30:33;99492.38;;;26.24;47.33
72798;BME280;61084;55.816;37.036;2022-07-04T05:32:59;99492.41;;;26.39;46.89
72798;BME280;61084;55.816;37.036;2022-07-04T05:35:26;99493.56;;;26.44;46.18
72798;BME280;61084;55.816;37.036;2022-07-04T05:37:53;99489.97;;;26.52;45.60
72798;BME280;61084;55.816;37.036;2022-07-04T05:40:19;99490.56;;;26.62;45.97
72798;BME280;61084;55.816;37.036;2022-07-04T05:42:47;99484.41;;;26.76;45.29
72798;BME280;61084;55.816;37.036;2022-07-04T05:45:14;99485.09;;;26.92;45.57
72798;BME280;61084;55.816;37.036;2022-07-04T05:47:41;99483.28;;;27.08;44.68
72798;BME280;61084;55.816;37.036;2022-07-04T05:50:06;99486.53;;;27.18;44.40
72798;BME280;61084;55.816;37.036;2022-07-04T05:52:32;99482.88;;;27.25;44.79
72798;BME280;61084;55.816;37.036;2022-07-04T05:54:58;99487.38;;;27.33;44.01
72798;BME280;61084;55.816;37.036;2022-07-04T05:57:24;99480.91;;;27.42;43.77
72798;BME280;61084;55.816;37.036;2022-07-04T05:59:50;99483.78;;;27.55;43.52
72798;BME280;61084;55.816;37.036;2022-07-04T06:02:16;99482.91;;;27.69;43.67
72798;BME280;61084;55.816;37.036;2022-07-04T06:04:42;99478.31;;;27.84;42.91
72798;BME280;61084;55.816;37.036;2022-07-04T06:07:09;99479.34;;;27.98;42.89
72798;BME280;61084;55.816;37.036;2022-07-04T06:09:35;99485.47;;;28.06;41.22
72798;BME280;61084;55.816;37.036;2022-07-04T06:12:02;99492.16;;;28.10;41.80
72798;BME280;61084;55.816;37.036;2022-07-04T06:14:28;99489.53;;;28.17;41.48
72798;BME280;61084;55.816;37.036;2022-07-04T06:16:54;99484.78;;;28.19;41.19
72798;BME280;61084;55.816;37.036;2022-07-04T06:19:19;99483.56;;;28.21;41.14
72798;BME280;61084;55.816;37.036;2022-07-04T06:21:45;99477.59;;;28.26;40.43
72798;BME280;61084;55.816;37.036;2022-07-04T06:24:11;99477.34;;;28.42;40.92
72798;BME280;61084;55.816;37.036;2022-07-04T06:26:37;99477.84;;;28.52;40.23
72798;BME280;61084;55.816;37.036;2022-07-04T06:29:03;99480.34;;;28.68;40.42
72798;BME280;61084;55.816;37.036;2022-07-04T06:31:28;99480.44;;;28.81;39.97
72798;BME280;61084;55.816;37.036;2022-07-04T06:33:54;99482.19;;;28.95;39.98
72798;BME280;61084;55.816;37.036;2022-07-04T06:36:38;99475.47;;;29.13;39.98
72798;BME280;61084;55.816;37.036;2022-07-04T06:39:04;99482.63;;;29.20;38.61
72798;BME280;61084;55.816;37.036;2022-07-04T06:41:30;99480.41;;;29.30;38.52
72798;BME280;61084;55.816;37.036;2022-07-04T06:43:56;99478.78;;;29.36;38.24
72798;BME280;61084;55.816;37.036;2022-07-04T06:46:21;99478.38;;;29.39;38.36
72798;BME280;61084;55.816;37.036;2022-07-04T06:48:47;99478.38;;;29.39;38.20
72798;BME280;61084;55.816;37.036;2022-07-04T06:51:13;99475.88;;;29.37;38.12
72798;BME280;61084;55.816;37.036;2022-07-04T06:53:41;99471.47;;;29.36;37.31
72798;BME280;61084;55.816;37.036;2022-07-04T06:56:07;99473.19;;;29.44;37.60
72798;BME280;61084;55.816;37.036;2022-07-04T06:58:33;99476.56;;;29.52;37.91
72798;BME280;61084;55.816;37.036;2022-07-04T07:00:58;99475.78;;;29.65;37.91
72798;BME280;61084;55.816;37.036;2022-07-04T07:03:24;99473.53;;;29.68;37.20
72798;BME280;61084;55.816;37.036;2022-07-04T07:05:50;99477.06;;;29.69;36.78
72798;BME280;61084;55.816;37.036;2022-07-04T07:08:16;99469.25;;;29.80;36.55
72798;BME280;61084;55.816;37.036;2022-07-04T07:10:42;99469.91;;;29.89;36.86
72798;BME280;61084;55.816;37.036;2022-07-04T07:13:08;99469.06;;;29.95;36.71
72798;BME280;61084;55.816;37.036;2022-07-04T07:15:34;99469.97;;;30.09;36.86
72798;BME280;61084;55.816;37.036;2022-07-04T07:18:04;99467.50;;;30.20;34.68
72798;BME280;61084;55.816;37.036;2022-07-04T07:20:30;99463.94;;;30.20;36.07
72798;BME280;61084;55.816;37.036;2022-07-04T07:22:56;99470.47;;;30.32;36.28
72798;BME280;61084;55.816;37.036;2022-07-04T07:25:22;99465.25;;;30.43;36.16
72798;BME280;61084;55.816;37.036;2022-07-04T07:27:47;99465.91;;;30.52;36.29
72798;BME280;61084;55.816;37.036;2022-07-04T07:30:13;99469.47;;;30.59;36.07
72798;BME280;61084;55.816;37.036;2022-07-04T07:32:39;99467.16;;;30.69;35.86
72798;BME280;61084;55.816;37.036;2022-07-04T07:35:05;99458.22;;;30.82;35.83
72798;BME280;61084;55.816;37.036;2022-07-04T07:37:31;99464.91;;;30.92;35.36
72798;BME280;61084;55.816;37.036;2022-07-04T07:39:57;99465.94;;;31.04;34.66
72798;BME280;61084;55.816;37.036;2022-07-04T07:42:23;99465.28;;;31.15;34.92
72798;BME280;61084;55.816;37.036;2022-07-04T07:44:49;99462.78;;;31.20;34.25
72798;BME280;61084;55.816;37.036;2022-07-04T07:47:15;99456.28;;;31.21;34.35
72798;BME280;61084;55.816;37.036;2022-07-04T07:49:42;99464.00;;;31.31;34.77
72798;BME280;61084;55.816;37.036;2022-07-04T07:52:08;99461.28;;;31.31;34.42
72798;BME280;61084;55.816;37.036;2022-07-04T07:54:34;99460.22;;;31.32;34.24
72798;BME280;61084;55.816;37.036;2022-07-04T07:56:59;99456.91;;;31.43;34.39
72798;BME280;61084;55.816;37.036;2022-07-04T07:59:25;99471.28;;;31.50;33.90
72798;BME280;61084;55.816;37.036;2022-07-04T08:01:51;99463.13;;;31.57;34.20
72798;BME280;61084;55.816;37.036;2022-07-04T08:04:17;99466.94;;;31.49;34.02
72798;BME280;61084;55.816;37.036;2022-07-04T08:07:10;99469.41;;;31.38;32.73
72798;BME280;61084;55.816;37.036;2022-07-04T08:09:38;99473.00;;;31.45;33.82
72798;BME280;61084;55.816;37.036;2022-07-04T08:12:05;99471.47;;;31.62;33.51
72798;BME280;61084;55.816;37.036;2022-07-04T08:14:31;99463.69;;;31.72;32.81
72798;BME280;61084;55.816;37.036;2022-07-04T08:16:58;99469.09;;;31.78;32.35
72798;BME280;61084;55.816;37.036;2022-07-04T08:19:24;99471.13;;;31.89;32.94
72798;BME280;61084;55.816;37.036;2022-07-04T08:21:51;99465.72;;;31.96;32.80
72798;BME280;61084;55.816;37.036;2022-07-04T08:24:18;99463.59;;;31.98;32.47
72798;BME280;61084;55.816;37.036;2022-07-04T08:26:44;99464.41;;;32.05;33.08
72798;BME280;61084;55.816;37.036;2022-07-04T08:29:20;99464.59;;;32.10;32.76
72798;BME280;61084;55.816;37.036;2022-07-04T08:31:47;99461.63;;;32.18;32.68
72798;BME280;61084;55.816;37.036;2022-07-04T08:34:13;99461.81;;;32.23;32.03
72798;BME280;61084;55.816;37.036;2022-07-04T08:36:39;99463.59;;;32.36;32.28
72798;BME280;61084;55.816;37.036;2022-07-04T08:39:05;99459.56;;;32.45;32.56
72798;BME280;61084;55.816;37.036;2022-07-04T08:41:37;99461.81;;;32.54;32.26
72798;BME280;61084;55.816;37.036;2022-07-04T08:44:06;99464.09;;;32.57;32.09
72798;BME280;61084;55.816;37.036;2022-07-04T08:46:33;99460.81;;;32.49;31.68
72798;BME280;61084;55.816;37.036;2022-07-04T08:49:02;99456.59;;;32.53;31.77
72798;BME280;61084;55.816;37.036;2022-07-04T08:54:03;99455.00;;;32.70;31.70
72798;BME280;61084;55.816;37.036;2022-07-04T08:56:49;99453.31;;;32.69;31.60
72798;BME280;61084;55.816;37.036;2022-07-04T08:59:35;99456.44;;;32.72;31.10
72798;BME280;61084;55.816;37.036;2022-07-04T09:02:02;99453.41;;;32.62;31.39
72798;BME280;61084;55.816;37.036;2022-07-04T09:04:29;99460.88;;;32.67;31.10
72798;BME280;61084;55.816;37.036;2022-07-04T09:06:56;99461.88;;;32.72;30.68
72798;BME280;61084;55.816;37.036;2022-07-04T09:09:22;99454.50;;;32.80;30.56
72798;BME280;61084;55.816;37.036;2022-07-04T09:11:49;99462.00;;;32.84;31.20
72798;BME280;61084;55.816;37.036;2022-07-04T09:14:15;99458.38;;;32.90;30.59
72798;BME280;61084;55.816;37.036;2022-07-04T09:16:41;99450.06;;;32.85;30.52
72798;BME280;61084;55.816;37.036;2022-07-04T09:19:19;99450.28;;;32.84;29.75
72798;BME280;61084;55.816;37.036;2022-07-04T09:21:47;99461.16;;;32.84;29.71
72798;BME280;61084;55.816;37.036;2022-07-04T09:24:13;99457.56;;;32.90;30.47
72798;BME280;61084;55.816;37.036;2022-07-04T09:26:46;99455.44;;;32.92;29.59
72798;BME280;61084;55.816;37.036;2022-07-04T09:29:12;99454.38;;;32.99;29.84
72798;BME280;61084;55.816;37.036;2022-07-04T09:31:39;99455.88;;;33.13;29.85
72798;BME280;61084;55.816;37.036;2022-07-04T09:34:06;99447.59;;;33.26;30.19
72798;BME280;61084;55.816;37.036;2022-07-04T09:36:43;99445.63;;;33.33;29.54
72798;BME280;61084;55.816;37.036;2022-07-04T09:39:14;99444.03;;;33.44;29.79
72798;BME280;61084;55.816;37.036;2022-07-04T09:41:50;99445.44;;;33.53;29.64
72798;BME280;61084;55.816;37.036;2022-07-04T09:44:17;99441.28;;;33.51;29.69
72798;BME280;61084;55.816;37.036;2022-07-04T09:46:43;99439.19;;;33.46;29.08
72798;BME280;61084;55.816;37.036;2022-07-04T09:49:10;99434.53;;;33.53;29.35
72798;BME280;61084;55.816;37.036;2022-07-04T09:51:44;99433.31;;;33.67;29.28
72798;BME280;61084;55.816;37.036;2022-07-04T09:54:24;99435.06;;;33.80;29.09
72798;BME280;61084;55.816;37.036;2022-07-04T09:56:56;99428.44;;;33.87;28.92
72798;BME280;61084;55.816;37.036;2022-07-04T09:59:23;99426.31;;;33.89;28.62
72798;BME280;61084;55.816;37.036;2022-07-04T10:01:50;99417.22;;;33.95;29.16
72798;BME280;61084;55.816;37.036;2022-07-04T10:04:16;99418.59;;;34.04;28.70
72798;BME280;61084;55.816;37.036;2022-07-04T10:06:44;99421.22;;;34.11;28.42
72798;BME280;61084;55.816;37.036;2022-07-04T10:09:11;99416.59;;;34.11;28.03
72798;BME280;61084;55.816;37.036;2022-07-04T10:11:39;99418.72;;;34.09;28.17
72798;BME280;61084;55.816;37.036;2022-07-04T10:14:07;99421.34;;;34.16;28.56
72798;BME280;61084;55.816;37.036;2022-07-04T10:16:33;99412.59;;;34.14;27.67
72798;BME280;61084;55.816;37.036;2022-07-04T10:18:59;99419.91;;;34.13;28.07
72798;BME280;61084;55.816;37.036;2022-07-04T10:21:25;99421.34;;;34.16;27.97
72798;BME280;61084;55.816;37.036;2022-07-04T10:23:51;99415.34;;;34.26;27.97
72798;BME280;61084;55.816;37.036;2022-07-04T10:26:18;99413.56;;;34.31;27.72
72798;BME280;61084;55.816;37.036;2022-07-04T10:28:45;99409.91;;;34.37;27.81
72798;BME280;61084;55.816;37.036;2022-07-04T10:31:14;99411.78;;;34.37;27.42
72798;BME280;61084;55.816;37.036;2022-07-04T10:33:41;99411.94;;;34.42;27.07
72798;BME280;61084;55.816;37.036;2022-07-04T10:36:20;99413.28;;;34.51;27.14
72798;BME280;61084;55.816;37.036;2022-07-04T10:38:55;99406.06;;;34.56;27.03
72798;BME280;61084;55.816;37.036;2022-07-04T10:41:22;99406.78;;;34.63;27.27
72798;BME280;61084;55.816;37.036;2022-07-04T10:46:33;99395.28;;;34.73;26.69
72798;BME280;61084;55.816;37.036;2022-07-04T10:49:02;99398.94;;;34.78;27.32
72798;BME280;61084;55.816;37.036;2022-07-04T10:57:17;99395.16;;;34.79;27.32
72798;BME280;61084;55.816;37.036;2022-07-04T11:00:03;99387.53;;;34.58;26.78
72798;BME280;61084;55.816;37.036;2022-07-04T11:02:35;99398.13;;;34.66;27.49
72798;BME280;61084;55.816;37.036;2022-07-04T11:20:37;99371.97;;;35.40;26.63
72798;BME280;61084;55.816;37.036;2022-07-04T11:23:16;99360.69;;;35.48;27.00
72798;BME280;61084;55.816;37.036;2022-07-04T11:25:44;99366.59;;;35.56;26.81
72798;BME280;61084;55.816;37.036;2022-07-04T11:30:54;99370.81;;;35.76;26.12
72798;BME280;61084;55.816;37.036;2022-07-04T11:33:22;99370.06;;;35.80;26.39
72798;BME280;61084;55.816;37.036;2022-07-04T11:36:05;99363.97;;;35.90;25.93
72798;BME280;61084;55.816;37.036;2022-07-04T11:38:51;99371.78;;;35.98;25.44
72798;BME280;61084;55.816;37.036;2022-07-04T11:41:23;99363.53;;;36.09;26.26
72798;BME280;61084;55.816;37.036;2022-07-04T11:44:13;99369.91;;;36.15;26.36
72798;BME280;61084;55.816;37.036;2022-07-04T11:47:13;99367.16;;;35.98;25.42
72798;BME280;61084;55.816;37.036;2022-07-04T11:52:20;99364.69;;;35.85;25.63
72798;BME280;61084;55.816;37.036;2022-07-04T11:54:47;99359.19;;;35.69;26.00
72798;BME280;61084;55.816;37.036;2022-07-04T11:59:41;99367.47;;;35.74;26.23
72798;BME280;61084;55.816;37.036;2022-07-04T12:02:12;99360.75;;;35.93;25.85
72798;BME280;61084;55.816;37.036;2022-07-04T12:04:38;99356.75;;;36.12;25.91
72798;BME280;61084;55.816;37.036;2022-07-04T12:07:11;99354.28;;;36.27;25.55
72798;BME280;61084;55.816;37.036;2022-07-04T12:09:37;99354.44;;;36.37;25.72
72798;BME280;61084;55.816;37.036;2022-07-04T12:12:04;99352.94;;;36.29;25.45
72798;BME280;61084;55.816;37.036;2022-07-04T12:14:29;99342.69;;;36.37;25.85
72798;BME280;61084;55.816;37.036;2022-07-04T12:17:17;99347.59;;;36.51;25.15
72798;BME280;61084;55.816;37.036;2022-07-04T12:20:14;99352.47;;;36.49;25.00
72798;BME280;61084;55.816;37.036;2022-07-04T12:22:53;99359.16;;;36.42;24.87
72798;BME280;61084;55.816;37.036;2022-07-04T12:25:33;99349.97;;;36.31;24.70
72798;BME280;61084;55.816;37.036;2022-07-04T12:28:10;99351.59;;;36.15;24.67
72798;BME280;61084;55.816;37.036;2022-07-04T12:30:39;99339.94;;;36.20;24.82
72798;BME280;61084;55.816;37.036;2022-07-04T12:33:13;99346.97;;;36.32;25.07
72798;BME280;61084;55.816;37.036;2022-07-04T12:40:56;99331.41;;;36.66;24.81
72798;BME280;61084;55.816;37.036;2022-07-04T12:43:44;99322.00;;;36.79;23.45
72798;BME280;61084;55.816;37.036;2022-07-04T12:48:51;99320.25;;;36.89;25.15
72798;BME280;61084;55.816;37.036;2022-07-04T12:51:19;99320.66;;;36.98;25.08
72798;BME280;61084;55.816;37.036;2022-07-04T12:53:48;99326.19;;;37.03;24.63
72798;BME280;61084;55.816;37.036;2022-07-04T12:58:54;99313.59;;;36.85;24.60
72798;BME280;61084;55.816;37.036;2022-07-04T13:01:20;99314.41;;;36.64;24.46
72798;BME280;61084;55.816;37.036;2022-07-04T13:03:45;99315.34;;;36.53;24.75
72798;BME280;61084;55.816;37.036;2022-07-04T13:06:11;99318.38;;;36.57;24.29
72798;BME280;61084;55.816;37.036;2022-07-04T13:08:37;99318.38;;;36.57;24.42
72798;BME280;61084;55.816;37.036;2022-07-04T13:11:03;99301.97;;;36.57;24.33
72798;BME280;61084;55.816;37.036;2022-07-04T13:13:47;99312.56;;;36.70;24.42
72798;BME280;61084;55.816;37.036;2022-07-04T13:16:13;99300.41;;;36.82;24.20
72798;BME280;61084;55.816;37.036;2022-07-04T13:18:40;99302.16;;;36.88;24.23
72798;BME280;61084;55.816;37.036;2022-07-04T13:21:06;99297.75;;;36.87;24.92
72798;BME280;61084;55.816;37.036;2022-07-04T13:23:32;99293.97;;;36.72;24.59
72798;BME280;61084;55.816;37.036;2022-07-04T13:25:58;99290.00;;;36.79;24.15
72798;BME280;61084;55.816;37.036;2022-07-04T13:28:24;99295.97;;;36.93;24.31
72798;BME280;61084;55.816;37.036;2022-07-04T13:30:49;99287.59;;;37.04;24.31
72798;BME280;61084;55.816;37.036;2022-07-04T13:33:15;99290.41;;;37.10;24.23
72798;BME280;61084;55.816;37.036;2022-07-04T13:35:41;99289.38;;;37.16;23.87
72798;BME280;61084;55.816;37.036;2022-07-04T13:38:07;99291.19;;;37.05;24.15